createdAt,value
2022-10-22T20:53:20.038Z,13.9
2022-10-22T20:54:20.036Z,13.91
2022-10-22T20:55:20.071Z,13.93
2022-10-22T20:56:20.027Z,13.94
2022-10-22T20:57:20.041Z,13.95
2022-10-22T20:58:23.395Z,13.95
2022-10-22T20:59:20.096Z,13.96
2022-10-22T21:00:20.034Z,13.97
2022-10-22T21:01:20.102Z,13.99
2022-10-22T21:02:20.051Z,13.99
2022-10-22T21:03:20.073Z,14
2022-10-22T21:04:20.047Z,13.99
2022-10-22T21:05:20.034Z,13.98
2022-10-22T21:06:20.034Z,13.98
2022-10-22T21:07:20.037Z,13.95
2022-10-22T21:08:20.034Z,13.94
2022-10-22T21:09:20.126Z,13.92
2022-10-22T21:10:20.055Z,13.89
2022-10-22T21:11:20.040Z,13.86
2022-10-22T21:12:20.105Z,13.84
2022-10-22T21:13:20.048Z,13.8
2022-10-22T21:14:20.042Z,13.77
2022-10-22T21:15:20.038Z,13.74
2022-10-22T21:16:20.049Z,13.7
2022-10-22T21:17:20.030Z,13.66
2022-10-22T21:18:20.039Z,13.62
2022-10-22T21:19:20.042Z,13.58
2022-10-22T21:20:23.922Z,13.55
2022-10-22T21:21:20.122Z,13.53
2022-10-22T21:22:20.030Z,13.51
2022-10-22T21:23:20.040Z,13.5
2022-10-22T21:24:20.058Z,13.52
2022-10-22T21:25:20.051Z,13.53
2022-10-22T21:26:20.024Z,13.53
2022-10-22T21:27:20.041Z,13.53
2022-10-22T21:28:20.233Z,13.54
2022-10-22T21:29:20.058Z,13.56
2022-10-22T21:30:20.043Z,13.56
2022-10-22T21:31:20.043Z,13.58
2022-10-22T21:32:20.044Z,13.59
2022-10-22T21:33:20.044Z,13.59
2022-10-22T21:34:20.054Z,13.59
2022-10-22T21:35:20.049Z,13.59
2022-10-22T21:36:23.439Z,13.6
2022-10-22T21:37:20.059Z,13.6
2022-10-22T21:38:20.048Z,13.59
2022-10-22T21:39:20.040Z,13.59
2022-10-22T21:40:20.039Z,13.58
2022-10-22T21:41:20.043Z,13.55
2022-10-22T21:42:20.059Z,13.53
2022-10-22T21:43:20.045Z,13.51
2022-10-22T21:44:20.028Z,13.49
2022-10-22T21:45:23.120Z,13.45
2022-10-22T21:46:20.037Z,13.41
2022-10-22T21:47:20.050Z,13.35
2022-10-22T21:48:20.070Z,13.3
2022-10-22T21:49:20.062Z,13.25
2022-10-22T21:50:20.043Z,13.23
2022-10-22T21:51:20.049Z,13.21
2022-10-22T21:52:20.047Z,13.2
2022-10-22T21:53:20.041Z,13.17
2022-10-22T21:54:20.051Z,13.15
2022-10-22T21:55:20.047Z,13.1
2022-10-22T21:56:20.040Z,13.06
2022-10-22T21:57:20.041Z,13
2022-10-22T21:58:20.080Z,12.93
2022-10-22T21:59:20.071Z,12.9
2022-10-22T22:00:20.071Z,12.85
2022-10-22T22:01:20.272Z,12.81
2022-10-22T22:03:20.048Z,12.73
2022-10-22T22:04:20.056Z,12.7
2022-10-22T22:05:20.057Z,12.66
2022-10-22T22:06:23.049Z,12.64
2022-10-22T22:07:20.060Z,12.64
2022-10-22T22:08:20.040Z,12.64
2022-10-22T22:09:20.114Z,12.63
2022-10-22T22:10:20.035Z,12.63
2022-10-22T22:11:20.042Z,12.65
2022-10-22T22:12:20.095Z,12.65
2022-10-22T22:13:20.023Z,12.68
2022-10-22T22:14:20.044Z,12.69
2022-10-22T22:15:20.030Z,12.71
2022-10-22T22:16:25.361Z,12.72
2022-10-22T22:17:20.040Z,12.75
2022-10-22T22:18:20.038Z,12.77
2022-10-22T22:19:20.052Z,12.78
2022-10-22T22:20:20.049Z,12.82
2022-10-22T22:21:20.048Z,12.83
2022-10-22T22:22:20.037Z,12.84
2022-10-22T22:23:20.031Z,12.85
2022-10-22T22:24:20.046Z,12.89
2022-10-22T22:25:20.066Z,12.93
2022-10-22T22:26:20.799Z,12.96
2022-10-22T22:27:21.115Z,13
2022-10-22T22:28:20.039Z,13.05
2022-10-22T22:29:20.045Z,13.07
2022-10-22T22:30:20.059Z,13.09
2022-10-22T22:31:20.078Z,13.15
2022-10-22T22:32:20.039Z,13.18
2022-10-22T22:33:20.044Z,13.21
2022-10-22T22:34:20.013Z,13.24
2022-10-22T22:35:20.045Z,13.25
2022-10-22T22:36:20.060Z,13.26
2022-10-22T22:37:20.144Z,13.28
2022-10-22T22:38:20.049Z,13.3
2022-10-22T22:39:20.064Z,13.33
2022-10-22T22:40:20.056Z,13.34
2022-10-22T22:41:20.031Z,13.35
2022-10-22T22:42:20.039Z,13.35
2022-10-22T22:43:20.037Z,13.36
2022-10-22T22:44:20.082Z,13.37
2022-10-22T22:45:20.022Z,13.37
2022-10-22T22:46:20.035Z,13.37
2022-10-22T22:47:20.032Z,13.36
2022-10-22T22:48:20.042Z,13.36
2022-10-22T22:49:20.049Z,13.35
2022-10-22T22:50:20.100Z,13.35
2022-10-22T22:51:20.066Z,13.34
2022-10-22T22:53:20.036Z,13.34
2022-10-22T22:54:20.060Z,13.33
2022-10-22T22:55:20.042Z,13.31
2022-10-22T22:56:20.061Z,13.3
2022-10-22T22:57:20.072Z,13.27
2022-10-22T22:58:20.056Z,13.23
2022-10-22T22:59:20.064Z,13.21
2022-10-22T23:00:20.508Z,13.17
2022-10-22T23:01:20.124Z,13.14
2022-10-22T23:02:20.169Z,13.1
2022-10-22T23:03:20.477Z,13.08
2022-10-22T23:04:20.027Z,13.07
2022-10-22T23:05:20.326Z,13.07
2022-10-22T23:06:20.176Z,13.06
2022-10-22T23:07:20.027Z,13.05
2022-10-22T23:08:20.196Z,13.04
2022-10-22T23:10:20.020Z,13.01
2022-10-22T23:11:20.062Z,13.02
2022-10-22T23:12:20.036Z,13
2022-10-22T23:13:20.035Z,12.98
2022-10-22T23:14:20.032Z,12.95
2022-10-22T23:15:20.221Z,12.93
2022-10-22T23:16:20.074Z,12.91
2022-10-22T23:17:20.021Z,12.9
2022-10-22T23:18:20.046Z,12.9
2022-10-22T23:19:20.033Z,12.92
2022-10-22T23:20:20.030Z,12.92
2022-10-22T23:21:20.062Z,12.93
2022-10-22T23:22:20.032Z,12.94
2022-10-22T23:23:20.029Z,12.96
2022-10-22T23:24:20.021Z,12.97
2022-10-22T23:25:20.139Z,12.98
2022-10-22T23:26:20.055Z,13
2022-10-22T23:27:20.029Z,13.01
2022-10-22T23:28:20.041Z,13.03
2022-10-22T23:29:20.030Z,13.04
2022-10-22T23:30:20.027Z,13.04
2022-10-22T23:31:20.023Z,13.04
2022-10-22T23:32:20.033Z,13.05
2022-10-22T23:33:20.032Z,13.07
2022-10-22T23:35:20.026Z,13.14
2022-10-22T23:36:20.036Z,13.17
2022-10-22T23:37:20.037Z,13.19
2022-10-22T23:38:20.027Z,13.21
2022-10-22T23:39:20.217Z,13.24
2022-10-22T23:40:20.040Z,13.24
2022-10-22T23:41:20.034Z,13.24
2022-10-22T23:42:20.026Z,13.25
2022-10-22T23:43:20.027Z,13.27
2022-10-22T23:44:20.070Z,13.3
2022-10-22T23:45:20.033Z,13.34
2022-10-22T23:46:20.028Z,13.36
2022-10-22T23:47:20.042Z,13.35
2022-10-22T23:48:20.065Z,13.35
2022-10-22T23:49:20.056Z,13.36
2022-10-22T23:50:20.044Z,13.37
2022-10-22T23:51:20.020Z,13.36
2022-10-22T23:52:20.031Z,13.36
2022-10-22T23:53:20.033Z,13.36
2022-10-22T23:54:20.045Z,13.38
2022-10-22T23:55:20.023Z,13.38
2022-10-22T23:56:20.030Z,13.38
2022-10-22T23:57:20.049Z,13.38
2022-10-22T23:58:20.029Z,13.36
2022-10-22T23:59:20.050Z,13.34
